Terminal Aerodrome Forecast
Issued by NWS

Current Version | Previous Version | Text Only | Print | Product List | Glossary On
Versions: 1 2 3 4 5 6 7 8 9 10 11 12
000
FTUS45 KFGZ 210500
TAFPRC
TAF
KPRC 210540Z 2106/2206 19004KT P6SM SCT200
     FM211800 34006KT P6SM SCT200
     FM220100 19005KT P6SM BKN200=

USA.gov is the U.S. government's official web portal to all federal, state and local government web resources and services.